createdAt,value
2023-04-15T00:00:59.680Z,87.50
2023-04-15T00:03:27.343Z,87.50
2023-04-15T00:05:54.341Z,87.60
2023-04-15T00:08:20.955Z,87.30
2023-04-15T00:10:48.052Z,87.60
2023-04-15T00:13:15.543Z,87.30
2023-04-15T00:15:43.575Z,87.50
2023-04-15T00:18:10.267Z,87.60
2023-04-15T00:20:37.351Z,87.70
2023-04-15T00:23:04.388Z,87.60
2023-04-15T00:25:31.690Z,87.40
2023-04-15T00:27:58.438Z,87.70
2023-04-15T00:30:26.786Z,87.60
2023-04-15T00:32:53.554Z,87.50
2023-04-15T00:35:20.882Z,87.30
2023-04-15T00:37:47.787Z,87.40
2023-04-15T00:40:17.450Z,87.60
2023-04-15T00:42:45.168Z,87.30
2023-04-15T00:45:12.289Z,87.70
2023-04-15T00:47:41.512Z,87.50
2023-04-15T00:50:08.834Z,87.70
2023-04-15T00:52:36.116Z,87.50
2023-04-15T00:55:04.596Z,87.60
2023-04-15T00:57:33.062Z,87.60
2023-04-15T01:00:00.569Z,87.70
2023-04-15T01:02:27.598Z,87.90
2023-04-15T01:04:54.777Z,87.90
2023-04-15T01:07:21.437Z,87.90
2023-04-15T01:09:48.313Z,87.80
2023-04-15T01:12:16.593Z,87.70
2023-04-15T01:14:43.688Z,87.70
2023-04-15T01:17:10.411Z,87.70
2023-04-15T01:19:37.131Z,87.80
2023-04-15T01:22:05.296Z,87.60
2023-04-15T01:24:33.369Z,87.70
2023-04-15T01:26:59.943Z,87.80
2023-04-15T01:29:27.648Z,87.70
2023-04-15T01:31:55.313Z,87.50
2023-04-15T01:34:24.569Z,87.60
2023-04-15T01:36:51.333Z,87.50
2023-04-15T01:39:18.171Z,87.50
2023-04-15T01:41:44.835Z,87.50
2023-04-15T01:44:11.805Z,87.40
2023-04-15T01:46:38.450Z,87.70
2023-04-15T01:49:05.329Z,87.50
2023-04-15T01:51:32.322Z,87.50
2023-04-15T01:53:59.006Z,87.50
2023-04-15T01:56:25.882Z,87.60
2023-04-15T01:58:52.887Z,87.50
2023-04-15T02:01:20.252Z,87.40
2023-04-15T02:03:47.841Z,87.60
2023-04-15T02:06:15.184Z,87.60
2023-04-15T02:08:41.815Z,87.60
2023-04-15T02:11:08.714Z,87.70
2023-04-15T02:13:35.351Z,87.70
2023-04-15T02:16:02.141Z,87.50
2023-04-15T02:18:28.792Z,87.80
2023-04-15T02:20:58.843Z,87.80
2023-04-15T02:23:25.868Z,87.80
2023-04-15T02:25:53.529Z,87.80
2023-04-15T02:28:21.630Z,87.70
2023-04-15T02:30:51.109Z,87.80
2023-04-15T02:33:18.187Z,87.70
2023-04-15T02:35:45.515Z,87.70
2023-04-15T02:38:13.581Z,87.70
2023-04-15T02:40:40.229Z,87.80
2023-04-15T02:43:07.516Z,87.90
2023-04-15T02:45:34.392Z,87.90
2023-04-15T02:48:06.322Z,87.60
2023-04-15T02:50:33.387Z,87.60
2023-04-15T02:53:01.804Z,87.60
2023-04-15T02:55:28.795Z,87.90
2023-04-15T02:57:56.056Z,87.70
2023-04-15T03:00:25.308Z,87.60
2023-04-15T03:02:56.794Z,88.00
2023-04-15T03:05:25.594Z,88.20
2023-04-15T03:07:52.302Z,88.10
2023-04-15T03:10:19.323Z,88.00
2023-04-15T03:12:46.106Z,88.20
2023-04-15T03:15:12.942Z,88.10
2023-04-15T03:17:39.592Z,88.10
2023-04-15T03:20:06.788Z,88.40
2023-04-15T03:22:33.438Z,88.30
2023-04-15T03:25:00.062Z,88.30
2023-04-15T03:27:27.172Z,88.20
2023-04-15T03:29:54.138Z,87.90
2023-04-15T03:32:21.211Z,88.20
2023-04-15T03:34:47.942Z,88.30
2023-04-15T03:37:14.823Z,88.30
2023-04-15T03:39:41.738Z,88.40
2023-04-15T03:42:08.651Z,88.30
2023-04-15T03:44:35.288Z,88.20
2023-04-15T03:47:02.141Z,88.00
2023-04-15T03:49:28.862Z,88.10
2023-04-15T03:51:55.785Z,88.10
2023-04-15T03:54:22.920Z,87.90
2023-04-15T03:56:49.513Z,88.20
2023-04-15T03:59:16.502Z,88.40
2023-04-15T04:01:44.805Z,88.40
2023-04-15T04:04:11.835Z,88.30
2023-04-15T04:06:40.742Z,88.10
2023-04-15T04:09:07.447Z,88.00
2023-04-15T04:11:34.287Z,88.10
2023-04-15T04:14:03.689Z,88.10
2023-04-15T04:16:30.730Z,88.10
2023-04-15T04:18:57.420Z,88.40
2023-04-15T04:21:24.295Z,88.20
2023-04-15T04:23:51.289Z,88.20
2023-04-15T04:26:18.129Z,88.20
2023-04-15T04:28:44.933Z,88.20
2023-04-15T04:31:11.797Z,88.10
2023-04-15T04:33:38.664Z,88.20
2023-04-15T04:36:05.573Z,88.30
2023-04-15T04:38:32.418Z,88.30
2023-04-15T04:40:59.135Z,88.20
2023-04-15T04:43:27.715Z,88.20
2023-04-15T04:45:54.581Z,88.20
2023-04-15T04:48:21.506Z,88.10
2023-04-15T04:50:48.520Z,88.10
2023-04-15T04:53:15.241Z,88.00
2023-04-15T04:55:44.949Z,88.00
2023-04-15T04:58:11.681Z,88.00
2023-04-15T05:00:38.550Z,88.10
2023-04-15T05:03:05.364Z,88.10
2023-04-15T05:05:32.163Z,88.00
2023-04-15T05:07:58.866Z,88.10
2023-04-15T05:10:25.798Z,87.80
2023-04-15T05:12:53.051Z,87.80
2023-04-15T05:15:20.610Z,87.90
2023-04-15T05:17:47.317Z,88.20
2023-04-15T05:20:14.641Z,88.00
2023-04-15T05:22:41.291Z,87.90
2023-04-15T05:25:08.675Z,88.00
2023-04-15T05:27:35.974Z,87.90
2023-04-15T05:30:02.718Z,88.20
2023-04-15T05:32:29.573Z,88.10
2023-04-15T05:34:56.228Z,87.60
2023-04-15T05:37:23.397Z,87.60
2023-04-15T05:39:50.033Z,87.90
2023-04-15T05:42:16.991Z,87.70
2023-04-15T05:44:43.965Z,87.90
2023-04-15T05:47:10.985Z,87.70
2023-04-15T05:49:37.716Z,87.60
2023-04-15T05:52:06.034Z,87.70
2023-04-15T05:54:32.715Z,87.90
2023-04-15T05:56:59.433Z,87.80
2023-04-15T05:59:28.373Z,87.70
2023-04-15T06:01:55.281Z,87.70
2023-04-15T06:04:22.909Z,87.90
2023-04-15T06:06:49.823Z,88.20
2023-04-15T06:09:21.693Z,88.30
2023-04-15T06:11:52.789Z,88.30
2023-04-15T06:14:19.457Z,88.30
2023-04-15T06:16:46.372Z,88.30
2023-04-15T06:19:14.207Z,88.20
2023-04-15T06:21:41.362Z,88.40
2023-04-15T06:24:08.275Z,88.20
2023-04-15T06:26:34.905Z,88.20
2023-04-15T06:29:02.474Z,88.40
2023-04-15T06:31:29.984Z,88.00
2023-04-15T06:33:56.904Z,88.00
2023-04-15T06:36:23.538Z,88.00
2023-04-15T06:38:50.764Z,87.80
2023-04-15T06:41:17.957Z,87.30
2023-04-15T06:43:44.992Z,87.40
2023-04-15T06:46:12.291Z,87.60
2023-04-15T06:48:39.114Z,87.50
2023-04-15T06:51:06.288Z,87.30
2023-04-15T06:53:33.366Z,87.30
2023-04-15T06:56:01.410Z,86.80
2023-04-15T06:58:28.895Z,86.90
2023-04-15T07:00:56.515Z,86.90
2023-04-15T07:03:23.697Z,87.20
2023-04-15T07:05:50.834Z,86.70
2023-04-15T07:08:17.928Z,86.70
2023-04-15T07:10:45.035Z,85.90
2023-04-15T07:13:12.073Z,86.40
2023-04-15T07:15:38.973Z,86.30
2023-04-15T07:18:06.942Z,86.10
2023-04-15T07:20:33.938Z,85.80
2023-04-15T07:23:01.083Z,86.10
2023-04-15T07:25:29.396Z,84.80
2023-04-15T07:27:56.520Z,85.50
2023-04-15T07:30:23.717Z,85.70
2023-04-15T07:32:50.588Z,85.10
2023-04-15T07:35:17.447Z,85.80
2023-04-15T07:37:44.589Z,85.80
2023-04-15T07:40:12.099Z,85.40
2023-04-15T07:42:41.160Z,85.80
2023-04-15T07:45:09.216Z,85.40
2023-04-15T07:47:36.306Z,85.30
2023-04-15T07:50:03.416Z,85.60
2023-04-15T07:52:30.424Z,85.80
2023-04-15T07:55:00.150Z,85.10
2023-04-15T08:00:09.319Z,84.40
2023-04-15T08:02:38.177Z,84.50
2023-04-15T08:07:48.417Z,85.30
2023-04-15T08:10:15.135Z,85.00
2023-04-15T08:12:42.213Z,84.80
2023-04-15T08:15:09.377Z,85.50
2023-04-15T08:17:36.214Z,84.60
2023-04-15T08:20:04.431Z,84.00
2023-04-15T08:22:31.473Z,83.50
2023-04-15T08:24:58.187Z,84.00
2023-04-15T08:27:25.237Z,84.10
2023-04-15T08:29:52.619Z,84.40
2023-04-15T08:32:19.447Z,84.40
2023-04-15T08:34:46.458Z,84.40
2023-04-15T08:37:14.287Z,84.00
2023-04-15T08:39:41.149Z,84.70
2023-04-15T08:42:12.377Z,84.30
2023-04-15T08:44:40.277Z,84.20
2023-04-15T08:47:08.900Z,84.60
2023-04-15T08:49:39.384Z,84.70
2023-04-15T08:52:07.761Z,84.80
2023-04-15T08:54:34.773Z,85.10
2023-04-15T08:57:02.485Z,84.50
2023-04-15T08:59:32.946Z,84.50
2023-04-15T09:02:00.109Z,85.00
2023-04-15T09:04:28.177Z,84.70
2023-04-15T09:06:54.963Z,84.80
2023-04-15T09:09:23.219Z,84.70
2023-04-15T09:11:51.518Z,84.30
2023-04-15T09:14:18.830Z,84.20
2023-04-15T09:16:58.937Z,83.90
2023-04-15T09:19:26.519Z,84.20
2023-04-15T09:21:58.913Z,83.60
2023-04-15T09:24:27.305Z,83.40
2023-04-15T09:26:55.612Z,83.10
2023-04-15T09:29:25.019Z,82.90
2023-04-15T09:31:52.804Z,83.70
2023-04-15T09:34:20.013Z,83.80
2023-04-15T09:36:49.133Z,85.20
2023-04-15T09:39:17.554Z,84.40
2023-04-15T09:41:45.923Z,83.20
2023-04-15T09:44:23.445Z,83.30
2023-04-15T09:46:51.865Z,83.30
2023-04-15T09:49:19.588Z,83.10
2023-04-15T09:52:01.312Z,83.30
2023-04-15T09:54:36.801Z,82.70
2023-04-15T09:57:07.404Z,82.80
2023-04-15T09:59:34.479Z,82.90
2023-04-15T10:02:04.299Z,83.00
2023-04-15T10:04:32.355Z,83.20
2023-04-15T10:06:59.734Z,82.70
2023-04-15T10:09:28.118Z,82.90
2023-04-15T10:11:55.043Z,83.00
2023-04-15T10:19:40.752Z,82.40
2023-04-15T10:22:07.982Z,83.10
2023-04-15T10:24:35.840Z,82.50
2023-04-15T10:29:40.052Z,81.60
2023-04-15T10:32:09.413Z,82.80
2023-04-15T10:34:36.708Z,82.50
2023-04-15T10:37:04.728Z,82.60
2023-04-15T10:39:40.128Z,81.10
2023-04-15T10:42:09.543Z,82.00
2023-04-15T10:44:40.207Z,81.00
2023-04-15T10:47:11.382Z,81.50
2023-04-15T10:49:49.213Z,81.90
2023-04-15T10:52:17.186Z,82.10
2023-04-15T10:54:43.996Z,81.70
2023-04-15T10:57:21.927Z,82.20
2023-04-15T10:59:59.045Z,81.80
2023-04-15T11:02:42.366Z,81.70
2023-04-15T11:05:10.016Z,81.90
2023-04-15T11:10:18.766Z,77.80
2023-04-15T11:12:46.095Z,79.90
2023-04-15T11:15:48.220Z,79.10
2023-04-15T11:18:14.876Z,78.80
2023-04-15T11:20:44.940Z,80.00
2023-04-15T11:23:14.978Z,80.60
2023-04-15T11:25:44.041Z,81.10
2023-04-15T11:28:12.250Z,80.10
2023-04-15T11:30:39.950Z,79.20
2023-04-15T11:35:44.598Z,79.80
2023-04-15T11:38:13.688Z,80.90
2023-04-15T11:40:41.323Z,80.70
2023-04-15T11:43:16.295Z,79.70
2023-04-15T11:45:55.969Z,79.30
2023-04-15T11:48:25.546Z,80.70
2023-04-15T11:50:57.488Z,79.50
2023-04-15T11:53:26.896Z,79.40
2023-04-15T11:55:55.188Z,80.00
2023-04-15T11:58:24.304Z,79.80
2023-04-15T12:00:55.607Z,79.90
2023-04-15T12:03:29.928Z,79.20
2023-04-15T12:06:07.205Z,79.00
2023-04-15T12:08:49.313Z,78.60
2023-04-15T12:11:19.299Z,78.10
2023-04-15T12:13:46.846Z,78.60
2023-04-15T12:16:16.814Z,78.00
2023-04-15T12:18:45.715Z,78.80
2023-04-15T12:21:14.140Z,78.00
2023-04-15T12:23:48.820Z,77.60
2023-04-15T12:26:15.868Z,78.80
2023-04-15T12:28:42.714Z,79.60
2023-04-15T12:31:13.449Z,78.50
2023-04-15T12:33:42.048Z,78.80
2023-04-15T12:36:09.934Z,78.90
2023-04-15T12:38:39.408Z,79.50
2023-04-15T12:41:07.032Z,79.90
2023-04-15T12:43:37.198Z,79.90
2023-04-15T12:46:07.024Z,79.90
2023-04-15T12:48:36.159Z,79.80
2023-04-15T12:51:05.675Z,79.90
2023-04-15T12:53:32.774Z,79.40
2023-04-15T12:56:00.720Z,78.80
2023-04-15T12:58:30.239Z,79.20
2023-04-15T13:00:57.496Z,79.80
2023-04-15T13:03:24.478Z,80.50
2023-04-15T13:05:52.547Z,80.00
2023-04-15T13:08:19.510Z,80.10
2023-04-15T13:10:47.361Z,80.00
2023-04-15T13:13:14.024Z,79.50
2023-04-15T13:15:41.085Z,78.60
2023-04-15T13:18:08.124Z,78.90
2023-04-15T13:20:34.919Z,78.70
2023-04-15T13:23:03.452Z,78.00
2023-04-15T13:25:30.174Z,77.80
2023-04-15T13:27:57.880Z,77.30
2023-04-15T13:30:24.722Z,77.20
2023-04-15T13:32:54.716Z,77.80
2023-04-15T13:35:27.638Z,77.80
2023-04-15T13:37:56.092Z,78.70
2023-04-15T13:40:22.829Z,77.80
2023-04-15T13:42:50.043Z,77.30
2023-04-15T13:45:19.676Z,77.70
2023-04-15T13:47:46.769Z,77.60
2023-04-15T13:50:15.437Z,79.00
2023-04-15T13:52:43.453Z,78.40
2023-04-15T13:55:20.293Z,79.90
2023-04-15T13:57:50.780Z,80.80
2023-04-15T14:00:20.347Z,80.80
2023-04-15T14:02:49.094Z,79.90
2023-04-15T14:05:20.444Z,81.20
2023-04-15T14:07:48.884Z,81.70
2023-04-15T14:10:19.147Z,82.00
2023-04-15T14:12:46.383Z,82.30
2023-04-15T14:15:14.866Z,81.90
2023-04-15T14:17:44.367Z,83.20
2023-04-15T14:20:14.052Z,82.90
2023-04-15T14:22:44.066Z,83.50
2023-04-15T14:25:19.961Z,83.60
2023-04-15T14:27:52.895Z,83.50
2023-04-15T14:30:20.083Z,82.80
2023-04-15T14:32:48.534Z,82.30
2023-04-15T14:35:17.331Z,82.40
2023-04-15T14:37:44.023Z,82.00
2023-04-15T14:40:10.903Z,82.50
2023-04-15T14:42:40.113Z,83.40
2023-04-15T14:45:10.100Z,82.70
2023-04-15T14:47:36.878Z,82.60
2023-04-15T14:50:03.984Z,82.80
2023-04-15T14:52:33.143Z,82.10
2023-04-15T14:54:59.976Z,82.70
2023-04-15T14:57:27.086Z,82.90
2023-04-15T14:59:57.167Z,82.40
2023-04-15T15:02:37.492Z,82.00
2023-04-15T15:05:06.235Z,82.70
2023-04-15T15:07:34.227Z,82.80
2023-04-15T15:10:02.112Z,82.50
2023-04-15T15:12:28.976Z,82.10
2023-04-15T15:14:56.191Z,81.40
2023-04-15T15:17:24.156Z,80.60
2023-04-15T15:19:52.608Z,81.50
2023-04-15T15:22:21.315Z,78.60
2023-04-15T15:24:48.490Z,79.60
2023-04-15T15:27:15.653Z,79.50
2023-04-15T15:29:42.480Z,80.70
2023-04-15T15:32:09.639Z,80.80
2023-04-15T15:34:39.231Z,80.10
2023-04-15T15:37:06.418Z,80.40
2023-04-15T15:39:34.008Z,80.90
2023-04-15T15:42:02.291Z,80.20
2023-04-15T15:44:34.959Z,79.50
2023-04-15T15:47:02.108Z,77.80
2023-04-15T15:49:29.100Z,77.20
2023-04-15T15:51:56.122Z,78.90
2023-04-15T15:54:22.937Z,78.90
2023-04-15T15:56:53.506Z,77.60
2023-04-15T15:59:22.529Z,79.70
2023-04-15T16:01:50.501Z,78.10
2023-04-15T16:04:18.066Z,79.10
2023-04-15T16:06:46.567Z,79.20
2023-04-15T16:09:13.800Z,79.20
2023-04-15T16:11:41.389Z,79.90
2023-04-15T16:14:08.309Z,77.80
2023-04-15T16:16:35.499Z,79.80
2023-04-15T16:19:03.991Z,79.90
2023-04-15T16:21:34.922Z,78.70
2023-04-15T16:24:09.393Z,78.60
2023-04-15T16:26:36.411Z,80.10
2023-04-15T16:29:03.550Z,80.20
2023-04-15T16:31:31.579Z,81.00
2023-04-15T16:33:58.235Z,81.30
2023-04-15T16:36:25.060Z,80.40
2023-04-15T16:38:51.887Z,80.50
2023-04-15T16:41:18.974Z,80.00
2023-04-15T16:43:46.432Z,79.50
2023-04-15T16:46:13.103Z,79.00
2023-04-15T16:48:42.112Z,79.70
2023-04-15T16:51:09.139Z,78.80
2023-04-15T16:53:36.159Z,79.10
2023-04-15T16:56:02.984Z,79.00
2023-04-15T16:58:33.119Z,79.50
2023-04-15T17:01:00.779Z,80.10
2023-04-15T17:03:27.868Z,80.00
2023-04-15T17:05:55.341Z,79.50
2023-04-15T17:08:23.530Z,79.90
2023-04-15T17:10:51.907Z,80.60
2023-04-15T17:13:21.281Z,81.30
2023-04-15T17:15:48.367Z,80.70
2023-04-15T17:18:15.428Z,81.20
2023-04-15T17:20:42.136Z,81.10
2023-04-15T17:23:09.489Z,81.90
2023-04-15T17:25:38.343Z,81.40
2023-04-15T17:28:13.823Z,81.90
2023-04-15T17:30:40.515Z,81.90
2023-04-15T17:33:50.568Z,81.60
2023-04-15T17:35:54.329Z,81.80
2023-04-15T17:38:21.057Z,81.80
2023-04-15T17:40:47.713Z,82.20
2023-04-15T17:43:14.694Z,82.40
2023-04-15T17:45:41.531Z,82.50
2023-04-15T17:48:08.269Z,82.20
2023-04-15T17:50:35.650Z,82.90
2023-04-15T17:53:02.813Z,83.00
2023-04-15T17:55:32.077Z,82.90
2023-04-15T17:58:07.145Z,82.90
2023-04-15T18:00:34.772Z,82.60
2023-04-15T18:03:01.699Z,83.20
2023-04-15T18:05:29.846Z,83.40
2023-04-15T18:07:59.604Z,83.90
2023-04-15T18:10:26.419Z,83.80
2023-04-15T18:12:55.608Z,83.70
2023-04-15T18:15:22.570Z,84.00
2023-04-15T18:17:49.372Z,83.80
2023-04-15T18:20:16.405Z,83.50
2023-04-15T18:22:43.378Z,83.70
2023-04-15T18:25:11.714Z,83.80
2023-04-15T18:27:40.274Z,84.00
2023-04-15T18:30:08.728Z,84.00
2023-04-15T18:32:35.592Z,84.20
2023-04-15T18:35:04.180Z,84.00
2023-04-15T18:37:31.136Z,83.90
2023-04-15T18:39:58.405Z,84.00
2023-04-15T18:42:25.739Z,84.50
2023-04-15T18:44:53.058Z,84.00
2023-04-15T18:47:20.852Z,84.10
2023-04-15T18:49:47.820Z,84.40
2023-04-15T18:52:16.299Z,84.20
2023-04-15T18:54:46.147Z,84.10
2023-04-15T18:57:12.905Z,84.20
2023-04-15T18:59:40.963Z,84.30
2023-04-15T19:02:09.066Z,84.30
2023-04-15T19:04:36.995Z,84.50
2023-04-15T19:07:03.816Z,84.60
2023-04-15T19:09:31.825Z,84.60
2023-04-15T19:11:58.801Z,84.20
2023-04-15T19:14:25.983Z,84.50
2023-04-15T19:16:53.737Z,84.70
2023-04-15T19:19:21.790Z,84.70
2023-04-15T19:21:50.434Z,84.70
2023-04-15T19:24:18.105Z,85.00
2023-04-15T19:26:47.175Z,85.20
2023-04-15T19:29:14.309Z,85.40
2023-04-15T19:31:41.091Z,85.60
2023-04-15T19:34:07.976Z,85.40
2023-04-15T19:36:34.873Z,85.70
2023-04-15T19:39:01.912Z,85.60
2023-04-15T19:41:28.769Z,85.60
2023-04-15T19:43:55.530Z,85.80
2023-04-15T19:46:24.872Z,85.80
2023-04-15T19:48:53.081Z,85.70
2023-04-15T19:51:19.780Z,86.10
2023-04-15T19:53:49.714Z,85.70
2023-04-15T19:56:16.945Z,86.10
2023-04-15T19:58:48.946Z,86.00
2023-04-15T20:01:18.580Z,85.90
2023-04-15T20:03:45.796Z,86.00
2023-04-15T20:06:15.070Z,86.20
2023-04-15T20:08:41.841Z,86.20
2023-04-15T20:11:11.189Z,86.30
2023-04-15T20:13:42.107Z,86.30
2023-04-15T20:16:08.964Z,86.40
2023-04-15T20:18:35.698Z,86.30
2023-04-15T20:21:03.554Z,86.20
2023-04-15T20:23:31.838Z,86.10
2023-04-15T20:25:58.644Z,86.10
2023-04-15T20:28:27.697Z,86.10
2023-04-15T20:30:54.565Z,86.00
2023-04-15T20:33:22.334Z,86.00
2023-04-15T20:35:49.892Z,86.00
2023-04-15T20:38:18.595Z,86.00
2023-04-15T20:40:49.925Z,86.10
2023-04-15T20:43:16.927Z,86.20
2023-04-15T20:45:44.071Z,86.20
2023-04-15T20:48:13.651Z,86.10
2023-04-15T20:50:40.630Z,86.20
2023-04-15T20:53:10.687Z,86.50
2023-04-15T20:55:37.495Z,86.80
2023-04-15T20:58:05.031Z,86.70
2023-04-15T21:00:33.040Z,86.70
2023-04-15T21:03:00.331Z,86.70
2023-04-15T21:05:27.334Z,86.70
2023-04-15T21:07:54.528Z,86.70
2023-04-15T21:10:21.743Z,86.70
2023-04-15T21:12:48.786Z,86.60
2023-04-15T21:15:17.818Z,86.50
2023-04-15T21:17:45.086Z,86.30
2023-04-15T21:20:11.997Z,86.40
2023-04-15T21:22:41.465Z,86.50
2023-04-15T21:25:08.464Z,86.10
2023-04-15T21:27:36.450Z,86.30
2023-04-15T21:30:03.778Z,86.40
2023-04-15T21:32:30.726Z,86.30
2023-04-15T21:34:58.789Z,86.30
2023-04-15T21:37:26.205Z,86.20
2023-04-15T21:39:53.112Z,86.20
2023-04-15T21:42:19.811Z,86.40
2023-04-15T21:44:46.881Z,86.70
2023-04-15T21:47:13.665Z,86.50
2023-04-15T21:49:40.513Z,86.60
2023-04-15T21:52:07.225Z,86.60
2023-04-15T21:54:34.118Z,86.50
2023-04-15T21:57:01.978Z,86.60
2023-04-15T21:59:28.838Z,86.60
2023-04-15T22:01:55.654Z,86.50
2023-04-15T22:04:23.038Z,86.60
2023-04-15T22:06:50.057Z,86.70
2023-04-15T22:09:17.019Z,86.80
2023-04-15T22:11:44.157Z,87.00
2023-04-15T22:14:15.022Z,86.90
2023-04-15T22:16:42.566Z,87.00
2023-04-15T22:19:09.669Z,87.00
2023-04-15T22:21:38.383Z,87.00
2023-04-15T22:24:31.611Z,87.00
2023-04-15T22:26:52.620Z,87.00
2023-04-15T22:29:19.600Z,87.00
2023-04-15T22:31:54.916Z,87.10
2023-04-15T22:34:23.046Z,87.00
2023-04-15T22:36:52.986Z,86.90
2023-04-15T22:39:20.220Z,87.10
2023-04-15T22:41:47.195Z,87.10
2023-04-15T22:44:14.145Z,87.00
2023-04-15T22:46:41.067Z,87.00
2023-04-15T22:49:08.567Z,87.10
2023-04-15T22:51:37.102Z,87.30
2023-04-15T22:54:03.839Z,87.40
2023-04-15T22:56:30.571Z,87.40
2023-04-15T22:58:57.357Z,87.50
2023-04-15T23:01:24.239Z,87.70
2023-04-15T23:03:59.952Z,87.60
2023-04-15T23:06:33.577Z,87.60
2023-04-15T23:09:00.682Z,87.60
2023-04-15T23:11:27.632Z,87.70
2023-04-15T23:13:54.310Z,87.80
2023-04-15T23:16:21.686Z,87.90
2023-04-15T23:18:50.342Z,87.90
2023-04-15T23:21:18.500Z,87.80
2023-04-15T23:23:45.429Z,87.90
2023-04-15T23:26:13.677Z,88.00
2023-04-15T23:28:40.568Z,88.00
2023-04-15T23:31:07.473Z,87.90
2023-04-15T23:33:38.138Z,87.90
2023-04-15T23:36:06.427Z,87.90
2023-04-15T23:38:33.388Z,87.90
2023-04-15T23:41:00.184Z,87.90
2023-04-15T23:43:27.078Z,87.80
2023-04-15T23:45:57.879Z,87.80
2023-04-15T23:48:25.154Z,88.10
2023-04-15T23:50:51.848Z,88.00
2023-04-15T23:53:18.708Z,87.90
2023-04-15T23:55:45.532Z,87.90
2023-04-15T23:58:12.519Z,87.90
